Main page
METAR-TAF:

METAR-TAF

Airports :

Paderborn Lippstadt Airport

Paderborn-Lippstadt, Germany

latitude: 51-37N, longitude: 008-37E, elevation: 213 m

Current weather observation

The report was made 36 minutes ago, at 16:20 UTC
Wind 9 kt from the East/Southeast
Temperature 13°C
Humidity 88%
Pressure 1013 hPa
Visibility: 9000 m
Broken clouds at a height of 1000 ft

METAR: EDLP 231620Z 12009KT 9000 BKN010 13/11 Q1013

Time: 18:56 (16:56 UTC)

Forecast

The report was made 18 minutes ago, at 16:38 UTC
Forecast valid from 23 at 16 UTC to 24 at 12 UTC
Wind 9 kt from the East/Southeast
Visibility 10 km or more
Broken clouds at a height of 900 ft
Becoming
from 23 at 17 UTC to 23 at 20 UTC
Scattered clouds at a height of 2000 ft
Becoming
from 24 at 05 UTC to 24 at 08 UTC
Wind 5 kt from the South
Becoming
from 24 at 08 UTC to 24 at 11 UTC
Wind 7 kt from the Southwest

TAF: EDLP 231638Z 2316/2412 11009KT 9999 BKN009 BECMG 2317/2320 SCT020 BECMG 2405/2408 17005KT BECMG 2408/2411 23007KT

Weather observations and forecasts of more than 4000 airports (METAR and TAF reports).

The available stations are represented by yellow and red dots on the map.

Hover mouse over dot to see the name of the station.

Then click to see weather observations and forecasts.

To change the map : click on the green buttons with a black cross to zoom in, on the green button with a dash to zoom out, or on the green arrows for adjacent maps.


METAR-TAF: